createdAt,value
2019-04-25T00:00:22.417Z,926.23
2019-04-25T00:01:22.458Z,926.23
2019-04-25T00:02:22.394Z,926.23
2019-04-25T00:03:22.399Z,926.20
2019-04-25T00:04:22.373Z,926.24
2019-04-25T00:05:22.363Z,926.25
2019-04-25T00:06:23.052Z,926.26
2019-04-25T00:07:22.392Z,926.28
2019-04-25T00:08:22.330Z,926.28
2019-04-25T00:09:22.322Z,926.29
2019-04-25T00:10:22.318Z,926.27
2019-04-25T00:11:22.297Z,926.23
2019-04-25T00:12:22.388Z,926.24
2019-04-25T00:13:22.376Z,926.24
2019-04-25T00:14:22.697Z,926.21
2019-04-25T00:15:22.442Z,926.18
2019-04-25T00:16:22.246Z,926.18
2019-04-25T00:17:22.235Z,926.21
2019-04-25T00:18:23.371Z,926.17
2019-04-25T00:19:22.260Z,926.27
2019-04-25T00:20:22.199Z,926.25
2019-04-25T00:21:22.192Z,926.30
2019-04-25T00:22:22.176Z,926.33
2019-04-25T00:23:22.167Z,926.38
2019-04-25T00:24:23.799Z,926.38
2019-04-25T00:25:22.198Z,926.39
2019-04-25T00:26:22.134Z,926.42
2019-04-25T00:27:23.763Z,926.42
2019-04-25T00:28:22.113Z,926.44
2019-04-25T00:29:22.203Z,926.41
2019-04-25T00:30:22.581Z,926.38
2019-04-25T00:31:22.137Z,926.41
2019-04-25T00:32:22.072Z,926.46
2019-04-25T00:33:22.061Z,926.46
2019-04-25T00:34:22.055Z,926.46
2019-04-25T00:35:22.036Z,926.46
2019-04-25T00:36:22.027Z,926.47
2019-04-25T00:37:22.632Z,926.52
2019-04-25T00:38:22.278Z,926.57
2019-04-25T00:39:21.997Z,926.53
2019-04-25T00:40:22.027Z,926.48
2019-04-25T00:41:21.978Z,926.44
2019-04-25T00:42:23.218Z,926.39
2019-04-25T00:43:22.103Z,926.37
2019-04-25T00:44:22.056Z,926.38
2019-04-25T00:45:22.341Z,926.35
2019-04-25T00:46:22.565Z,926.42
2019-04-25T00:47:21.908Z,926.46
2019-04-25T00:48:22.328Z,926.51
2019-04-25T00:49:23.583Z,926.58
2019-04-25T00:50:22.010Z,926.53
2019-04-25T00:51:21.870Z,926.62
2019-04-25T00:52:22.836Z,926.52
2019-04-25T00:53:21.844Z,926.50
2019-04-25T00:54:22.699Z,926.49
2019-04-25T00:55:28.493Z,926.54
2019-04-25T00:56:48.290Z,926.49
2019-04-25T00:57:46.753Z,926.50
2019-04-25T00:58:46.810Z,926.44
2019-04-25T00:59:46.891Z,926.51
2019-04-25T01:00:46.942Z,926.52
2019-04-25T01:01:47.925Z,926.56
2019-04-25T01:02:47.326Z,926.57
2019-04-25T01:03:47.174Z,926.54
2019-04-25T01:04:47.195Z,926.54
2019-04-25T01:05:47.467Z,926.61
2019-04-25T01:06:47.525Z,926.59
2019-04-25T01:07:46.507Z,926.54
2019-04-25T01:08:46.496Z,926.57
2019-04-25T01:09:46.485Z,926.58
2019-04-25T01:10:46.476Z,926.56
2019-04-25T01:11:46.464Z,926.53
2019-04-25T01:12:46.503Z,926.53
2019-04-25T01:13:46.455Z,926.51
2019-04-25T01:14:46.530Z,926.52
2019-04-25T01:15:46.462Z,926.53
2019-04-25T01:16:46.542Z,926.56
2019-04-25T01:17:46.976Z,926.59
2019-04-25T01:18:46.795Z,926.58
2019-04-25T01:19:46.781Z,926.63
2019-04-25T01:20:46.961Z,926.61
2019-04-25T01:21:46.993Z,926.59
2019-04-25T01:22:47.173Z,926.62
2019-04-25T01:23:47.265Z,926.63
2019-04-25T01:24:47.212Z,926.59
2019-04-25T01:25:47.063Z,926.55
2019-04-25T01:26:46.301Z,926.57
2019-04-25T01:27:46.298Z,926.57
2019-04-25T01:28:46.285Z,926.55
2019-04-25T01:29:46.358Z,926.57
2019-04-25T01:30:46.385Z,926.60
2019-04-25T01:31:46.624Z,926.64
2019-04-25T01:32:46.773Z,926.59
2019-04-25T01:33:46.773Z,926.59
2019-04-25T01:34:47.027Z,926.56
2019-04-25T01:35:47.259Z,926.62
2019-04-25T01:36:47.177Z,926.60
2019-04-25T01:37:47.375Z,926.66
2019-04-25T01:38:47.314Z,926.66
2019-04-25T01:39:47.448Z,926.70
2019-04-25T01:40:47.128Z,926.68
2019-04-25T01:41:47.579Z,926.63
2019-04-25T01:42:46.180Z,926.69
2019-04-25T01:43:46.118Z,926.67
2019-04-25T01:44:46.105Z,926.68
2019-04-25T01:45:46.096Z,926.70
2019-04-25T01:46:46.085Z,926.66
2019-04-25T01:47:46.130Z,926.71
2019-04-25T01:48:46.073Z,926.74
2019-04-25T01:49:46.056Z,926.73
2019-04-25T01:50:46.042Z,926.74
2019-04-25T01:51:46.028Z,926.76
2019-04-25T01:52:46.023Z,926.78
2019-04-25T01:53:46.062Z,926.74
2019-04-25T01:54:46.000Z,926.73
2019-04-25T01:55:55.989Z,926.74
2019-04-25T01:57:10.791Z,926.73
2019-04-25T01:58:10.779Z,926.69
2019-04-25T01:59:10.822Z,926.66
2019-04-25T02:00:10.759Z,926.68
2019-04-25T02:01:10.749Z,926.71
2019-04-25T02:02:10.737Z,926.72
2019-04-25T02:03:10.734Z,926.73
2019-04-25T02:04:10.715Z,926.77
2019-04-25T02:05:10.803Z,926.77
2019-04-25T02:06:10.699Z,926.80
2019-04-25T02:07:10.684Z,926.85
2019-04-25T02:08:10.671Z,926.85
2019-04-25T02:09:10.660Z,926.89
2019-04-25T02:10:10.650Z,926.89
2019-04-25T02:11:10.738Z,926.92
2019-04-25T02:12:10.629Z,926.91
2019-04-25T02:13:10.617Z,926.93
2019-04-25T02:14:10.608Z,926.87
2019-04-25T02:15:10.597Z,926.90
2019-04-25T02:16:10.838Z,926.88
2019-04-25T02:17:10.575Z,926.91
2019-04-25T02:18:10.564Z,926.93
2019-04-25T02:19:10.554Z,926.94
2019-04-25T02:20:10.543Z,926.97
2019-04-25T02:21:10.531Z,927.01
2019-04-25T02:22:10.572Z,926.97
2019-04-25T02:23:10.513Z,927.00
2019-04-25T02:24:10.499Z,926.95
2019-04-25T02:25:10.489Z,927.02
2019-04-25T02:26:16.027Z,926.99
2019-04-25T02:27:35.331Z,926.99
2019-04-25T02:28:35.321Z,927.02
2019-04-25T02:29:35.313Z,926.99
2019-04-25T02:30:35.793Z,927.04
2019-04-25T02:31:35.288Z,927.04
2019-04-25T02:32:37.197Z,927.05
2019-04-25T02:33:35.269Z,927.08
2019-04-25T02:34:35.263Z,927.04
2019-04-25T02:35:35.249Z,927.06
2019-04-25T02:36:35.263Z,927.08
2019-04-25T02:37:35.317Z,927.15
2019-04-25T02:38:35.269Z,927.10
2019-04-25T02:39:37.330Z,927.16
2019-04-25T02:40:35.199Z,927.09
2019-04-25T02:41:35.186Z,927.08
2019-04-25T02:42:35.173Z,927.10
2019-04-25T02:43:35.334Z,927.15
2019-04-25T02:44:35.254Z,927.11
2019-04-25T02:45:35.140Z,927.13
2019-04-25T02:46:37.240Z,927.14
2019-04-25T02:47:35.121Z,927.17
2019-04-25T02:48:35.108Z,927.17
2019-04-25T02:49:38.882Z,927.15
2019-04-25T02:50:35.238Z,927.22
2019-04-25T02:51:35.145Z,927.23
2019-04-25T02:52:35.064Z,927.23
2019-04-25T02:53:37.294Z,927.21
2019-04-25T02:54:35.053Z,927.21
2019-04-25T02:55:37.565Z,927.24
2019-04-25T02:56:38.709Z,927.21
2019-04-25T02:57:35.020Z,927.19
2019-04-25T02:58:35.006Z,927.22
2019-04-25T02:59:36.962Z,927.23
2019-04-25T03:00:51.323Z,927.25
2019-04-25T03:02:00.731Z,927.28
2019-04-25T03:03:01.000Z,927.26
2019-04-25T03:04:00.956Z,927.27
2019-04-25T03:05:01.173Z,927.28
2019-04-25T03:06:01.451Z,927.21
2019-04-25T03:07:00.695Z,927.18
2019-04-25T03:08:01.270Z,927.15
2019-04-25T03:09:00.304Z,927.21
2019-04-25T03:09:59.823Z,927.23
2019-04-25T03:10:59.892Z,927.19
2019-04-25T03:11:59.981Z,927.18
2019-04-25T03:14:00.523Z,927.17
2019-04-25T03:15:00.126Z,927.14
2019-04-25T03:16:00.579Z,927.14
2019-04-25T03:17:00.411Z,927.12
2019-04-25T03:18:00.202Z,927.11
2019-04-25T03:19:00.548Z,927.08
2019-04-25T03:20:01.234Z,927.12
2019-04-25T03:21:01.163Z,927.14
2019-04-25T03:22:01.400Z,927.21
2019-04-25T03:23:01.132Z,927.25
2019-04-25T03:24:01.320Z,927.27
2019-04-25T03:25:00.339Z,927.24
2019-04-25T03:27:00.802Z,927.25
2019-04-25T03:27:59.678Z,927.21
2019-04-25T03:28:59.720Z,927.25
2019-04-25T03:29:59.736Z,927.19
2019-04-25T03:30:59.856Z,927.21
2019-04-25T03:32:00.939Z,927.22
2019-04-25T03:33:02.210Z,927.27
2019-04-25T03:34:02.182Z,927.25
2019-04-25T03:35:01.155Z,927.19
2019-04-25T03:35:59.511Z,927.23
2019-04-25T03:36:59.500Z,927.17
2019-04-25T03:38:00.472Z,927.18
2019-04-25T03:38:59.999Z,927.17
2019-04-25T03:39:59.468Z,927.16
2019-04-25T03:41:00.175Z,927.20
2019-04-25T03:41:59.444Z,927.21
2019-04-25T03:42:59.435Z,927.23
2019-04-25T03:43:59.475Z,927.18
2019-04-25T03:44:59.412Z,927.21
2019-04-25T03:45:59.399Z,927.22
2019-04-25T03:46:59.392Z,927.23
2019-04-25T03:47:59.379Z,927.22
2019-04-25T03:48:59.369Z,927.23
2019-04-25T03:49:59.409Z,927.18
2019-04-25T03:50:59.345Z,927.20
2019-04-25T03:51:59.336Z,927.21
2019-04-25T03:52:59.325Z,927.23
2019-04-25T03:53:59.313Z,927.21
2019-04-25T03:54:59.302Z,927.22
2019-04-25T03:56:59.384Z,927.16
2019-04-25T03:57:59.272Z,927.20
2019-04-25T03:58:59.259Z,927.21
2019-04-25T03:59:59.247Z,927.26
2019-04-25T04:00:59.244Z,927.24
2019-04-25T04:02:01.165Z,927.23
2019-04-25T04:02:59.266Z,927.24
2019-04-25T04:03:59.205Z,927.29
2019-04-25T04:04:59.194Z,927.24
2019-04-25T04:05:59.184Z,927.25
2019-04-25T04:06:59.173Z,927.26
2019-04-25T04:07:59.162Z,927.28
2019-04-25T04:08:59.249Z,927.29
2019-04-25T04:09:59.140Z,927.26
2019-04-25T04:10:59.130Z,927.31
2019-04-25T04:11:59.119Z,927.24
2019-04-25T04:12:59.109Z,927.24
2019-04-25T04:13:59.098Z,927.27
2019-04-25T04:14:59.187Z,927.29
2019-04-25T04:15:59.077Z,927.25
2019-04-25T04:16:59.064Z,927.27
2019-04-25T04:17:59.053Z,927.30
2019-04-25T04:18:59.042Z,927.36
2019-04-25T04:19:59.032Z,927.35
2019-04-25T04:20:59.118Z,927.36
2019-04-25T04:21:59.007Z,927.36
2019-04-25T04:22:58.997Z,927.31
2019-04-25T04:23:58.985Z,927.34
2019-04-25T04:24:58.978Z,927.30
2019-04-25T04:25:58.966Z,927.37
2019-04-25T04:27:03.613Z,927.42
2019-04-25T04:28:23.756Z,927.42
2019-04-25T04:29:25.495Z,927.41
2019-04-25T04:30:24.216Z,927.39
2019-04-25T04:31:23.728Z,927.39
2019-04-25T04:32:24.250Z,927.46
2019-04-25T04:33:31.907Z,927.46
2019-04-25T04:34:48.508Z,927.47
2019-04-25T04:35:48.497Z,927.42
2019-04-25T04:36:48.485Z,927.42
2019-04-25T04:37:48.524Z,927.40
2019-04-25T04:38:48.538Z,927.41
2019-04-25T04:39:48.471Z,927.42
2019-04-25T04:40:48.442Z,927.51
2019-04-25T04:41:48.432Z,927.53
2019-04-25T04:42:48.421Z,927.56
2019-04-25T04:43:48.458Z,927.52
2019-04-25T04:44:48.400Z,927.53
2019-04-25T04:45:48.388Z,927.48
2019-04-25T04:46:48.377Z,927.50
2019-04-25T04:47:48.367Z,927.53
2019-04-25T04:48:48.505Z,927.50
2019-04-25T04:49:48.345Z,927.50
2019-04-25T04:50:48.337Z,927.53
2019-04-25T04:51:48.323Z,927.48
2019-04-25T04:52:48.311Z,927.50
2019-04-25T04:53:48.300Z,927.46
2019-04-25T04:54:48.388Z,927.47
2019-04-25T04:55:48.280Z,927.43
2019-04-25T04:56:48.266Z,927.47
2019-04-25T04:57:48.255Z,927.51
2019-04-25T04:58:48.247Z,927.51
2019-04-25T04:59:48.234Z,927.50
2019-04-25T05:00:48.273Z,927.48
2019-04-25T05:01:48.214Z,927.54
2019-04-25T05:02:48.202Z,927.58
2019-04-25T05:03:48.193Z,927.62
2019-04-25T05:04:48.178Z,927.66
2019-04-25T05:05:48.226Z,927.64
2019-04-25T05:06:48.160Z,927.65
2019-04-25T05:07:48.150Z,927.62
2019-04-25T05:08:48.140Z,927.65
2019-04-25T05:09:48.127Z,927.62
2019-04-25T05:10:48.115Z,927.64
2019-04-25T05:11:48.154Z,927.60
2019-04-25T05:12:48.094Z,927.61
2019-04-25T05:13:48.087Z,927.64
2019-04-25T05:14:48.073Z,927.65
2019-04-25T05:15:48.064Z,927.62
2019-04-25T05:16:49.553Z,927.62
2019-04-25T05:17:48.125Z,927.64
2019-04-25T05:18:48.034Z,927.58
2019-04-25T05:19:48.018Z,927.64
2019-04-25T05:20:48.010Z,927.64
2019-04-25T05:21:48.001Z,927.61
2019-04-25T05:22:48.139Z,927.63
2019-04-25T05:23:47.978Z,927.60
2019-04-25T05:24:47.965Z,927.60
2019-04-25T05:25:47.955Z,927.58
2019-04-25T05:26:47.942Z,927.58
2019-04-25T05:27:59.673Z,927.61
2019-04-25T05:28:49.125Z,927.67
2019-04-25T05:29:47.912Z,927.73
2019-04-25T05:30:47.902Z,927.73
2019-04-25T05:31:47.893Z,927.74
2019-04-25T05:32:48.013Z,927.71
2019-04-25T05:33:47.873Z,927.69
2019-04-25T05:34:49.315Z,927.73
2019-04-25T05:35:47.849Z,927.74
2019-04-25T05:36:47.837Z,927.79
2019-04-25T05:37:47.827Z,927.83
2019-04-25T05:38:47.818Z,927.84
2019-04-25T05:39:47.804Z,927.84
2019-04-25T05:41:47.936Z,927.86
2019-04-25T05:42:47.774Z,927.83
2019-04-25T05:43:47.761Z,927.81
2019-04-25T05:44:47.754Z,927.83
2019-04-25T05:45:47.740Z,927.82
2019-04-25T05:46:47.817Z,927.82
2019-04-25T05:47:47.770Z,927.83
2019-04-25T05:48:47.710Z,927.83
2019-04-25T05:49:47.705Z,927.87
2019-04-25T05:50:47.693Z,927.85
2019-04-25T05:51:47.677Z,927.89
2019-04-25T05:52:47.666Z,927.89
2019-04-25T05:53:47.754Z,927.91
2019-04-25T05:54:47.646Z,927.89
2019-04-25T05:55:47.635Z,927.87
2019-04-25T05:56:47.623Z,927.91
2019-04-25T05:57:50.113Z,927.91
2019-04-25T05:58:47.601Z,927.90
2019-04-25T05:59:47.743Z,927.93
2019-04-25T06:00:47.580Z,927.95
2019-04-25T06:01:47.570Z,927.92
2019-04-25T06:02:47.557Z,927.90
2019-04-25T06:03:47.548Z,927.93
2019-04-25T06:04:47.537Z,927.89
2019-04-25T06:05:47.582Z,927.87
2019-04-25T06:06:47.515Z,927.81
2019-04-25T06:07:47.508Z,927.89
2019-04-25T06:08:47.495Z,927.87
2019-04-25T06:09:47.485Z,927.90
2019-04-25T06:10:47.525Z,927.90
2019-04-25T06:11:47.463Z,927.87
2019-04-25T06:12:47.451Z,927.91
2019-04-25T06:13:47.440Z,927.92
2019-04-25T06:14:47.430Z,927.94
2019-04-25T06:15:47.668Z,927.96
2019-04-25T06:16:47.407Z,927.95
2019-04-25T06:17:47.397Z,927.92
2019-04-25T06:18:47.384Z,927.89
2019-04-25T06:19:47.377Z,927.86
2019-04-25T06:20:47.363Z,927.85
2019-04-25T06:21:47.455Z,927.83
2019-04-25T06:22:47.342Z,927.87
2019-04-25T06:23:47.331Z,927.85
2019-04-25T06:24:47.321Z,927.84
2019-04-25T06:25:47.308Z,927.86
2019-04-25T06:26:47.300Z,927.83
2019-04-25T06:27:56.369Z,927.79
2019-04-25T06:29:13.413Z,927.80
2019-04-25T06:30:12.079Z,927.80
2019-04-25T06:31:13.678Z,927.76
2019-04-25T06:32:14.114Z,927.79
2019-04-25T06:34:13.975Z,927.83
2019-04-25T06:35:12.024Z,927.81
2019-04-25T06:36:12.013Z,927.81
2019-04-25T06:37:12.003Z,927.82
2019-04-25T06:38:13.373Z,927.86
2019-04-25T06:39:11.980Z,927.81
2019-04-25T06:40:13.730Z,927.82
2019-04-25T06:41:13.445Z,927.78
2019-04-25T06:42:11.951Z,927.81
2019-04-25T06:43:13.473Z,927.78
2019-04-25T06:44:13.617Z,927.84
2019-04-25T06:45:13.531Z,927.84
2019-04-25T06:46:12.006Z,927.80
2019-04-25T06:47:13.042Z,927.81
2019-04-25T06:48:11.883Z,927.81
2019-04-25T06:49:13.399Z,927.80
2019-04-25T06:50:11.859Z,927.79
2019-04-25T06:51:13.417Z,927.83
2019-04-25T06:52:11.887Z,927.83
2019-04-25T06:53:13.478Z,927.82
2019-04-25T06:54:13.460Z,927.80
2019-04-25T06:55:11.806Z,927.81
2019-04-25T06:56:13.568Z,927.82
2019-04-25T06:57:11.786Z,927.77
2019-04-25T06:58:14.072Z,927.79
2019-04-25T06:59:13.557Z,927.82
2019-04-25T07:00:11.750Z,927.78
2019-04-25T07:01:13.315Z,927.74
2019-04-25T07:02:11.730Z,927.68
2019-04-25T07:03:11.718Z,927.66
2019-04-25T07:04:11.757Z,927.65
2019-04-25T07:05:25.595Z,927.69
2019-04-25T07:06:12.980Z,927.64
2019-04-25T07:07:14.358Z,927.64
2019-04-25T07:08:13.193Z,927.61
2019-04-25T07:09:11.652Z,927.62
2019-04-25T07:10:13.247Z,927.63
2019-04-25T07:11:11.632Z,927.60
2019-04-25T07:12:13.397Z,927.60
2019-04-25T07:13:11.608Z,927.60
2019-04-25T07:14:11.596Z,927.58
2019-04-25T07:15:11.639Z,927.60
2019-04-25T07:16:13.278Z,927.59
2019-04-25T07:17:11.570Z,927.63
2019-04-25T07:18:11.561Z,927.63
2019-04-25T07:19:11.551Z,927.67
2019-04-25T07:20:11.540Z,927.68
2019-04-25T07:21:11.570Z,927.65
2019-04-25T07:22:11.517Z,927.62
2019-04-25T07:23:11.501Z,927.63
2019-04-25T07:24:11.489Z,927.62
2019-04-25T07:25:13.086Z,927.55
2019-04-25T07:26:11.466Z,927.57
2019-04-25T07:27:11.558Z,927.57
2019-04-25T07:28:22.222Z,927.60
2019-04-25T07:29:13.448Z,927.55
2019-04-25T07:30:11.426Z,927.59
2019-04-25T07:31:11.417Z,927.55
2019-04-25T07:32:11.552Z,927.59
2019-04-25T07:33:11.394Z,927.54
2019-04-25T07:34:11.379Z,927.47
2019-04-25T07:35:11.368Z,927.48
2019-04-25T07:36:11.438Z,927.52
2019-04-25T07:37:13.147Z,927.51
2019-04-25T07:38:11.388Z,927.55
2019-04-25T07:39:11.325Z,927.50
2019-04-25T07:40:11.317Z,927.51
2019-04-25T07:41:14.076Z,927.46
2019-04-25T07:42:11.294Z,927.45
2019-04-25T07:43:11.283Z,927.45
2019-04-25T07:44:11.372Z,927.42
2019-04-25T07:45:11.321Z,927.45
2019-04-25T07:46:11.259Z,927.45
2019-04-25T07:47:11.246Z,927.43
2019-04-25T07:48:11.230Z,927.37
2019-04-25T07:49:11.218Z,927.41
2019-04-25T07:50:11.356Z,927.36
2019-04-25T07:51:11.198Z,927.36
2019-04-25T07:52:11.593Z,927.40
2019-04-25T07:53:11.173Z,927.45
2019-04-25T07:54:11.163Z,927.43
2019-04-25T07:55:11.156Z,927.45
2019-04-25T07:56:11.241Z,927.51
2019-04-25T07:57:11.133Z,927.50
2019-04-25T07:58:11.124Z,927.49
2019-04-25T07:59:11.111Z,927.48
2019-04-25T08:00:11.102Z,927.52
2019-04-25T08:01:11.091Z,927.49
2019-04-25T08:02:13.271Z,927.47
2019-04-25T08:03:11.070Z,927.49
2019-04-25T08:04:11.060Z,927.43
2019-04-25T08:05:11.050Z,927.43
2019-04-25T08:06:11.039Z,927.41
2019-04-25T08:07:11.379Z,927.42
2019-04-25T08:08:11.021Z,927.45
2019-04-25T08:09:11.007Z,927.42
2019-04-25T08:10:10.993Z,927.42
2019-04-25T08:11:10.987Z,927.44
2019-04-25T08:12:11.323Z,927.46
2019-04-25T08:13:10.962Z,927.49
2019-04-25T08:14:10.956Z,927.52
2019-04-25T08:15:10.940Z,927.45
2019-04-25T08:16:10.930Z,927.42
2019-04-25T08:17:10.921Z,927.39
2019-04-25T08:18:10.955Z,927.40
2019-04-25T08:19:10.897Z,927.39
2019-04-25T08:20:10.885Z,927.41
2019-04-25T08:21:10.877Z,927.46
2019-04-25T08:22:10.866Z,927.45
2019-04-25T08:23:10.853Z,927.39
2019-04-25T08:24:10.892Z,927.39
2019-04-25T08:25:10.830Z,927.32
2019-04-25T08:26:10.820Z,927.41
2019-04-25T08:27:10.810Z,927.34
2019-04-25T08:28:10.804Z,927.42
2019-04-25T08:29:10.791Z,927.38
2019-04-25T08:30:11.031Z,927.35
2019-04-25T08:31:10.769Z,927.35
2019-04-25T08:32:10.757Z,927.32
2019-04-25T08:33:10.741Z,927.34
2019-04-25T08:34:10.732Z,927.35
2019-04-25T08:35:10.719Z,927.32
2019-04-25T08:36:10.758Z,927.30
2019-04-25T08:37:18.191Z,927.31
2019-04-25T08:38:36.107Z,927.31
2019-04-25T08:39:37.323Z,927.27
2019-04-25T08:40:37.310Z,927.28
2019-04-25T08:41:36.045Z,927.22
2019-04-25T08:42:36.691Z,927.16
2019-04-25T08:43:37.804Z,927.20
2019-04-25T08:44:35.981Z,927.22
2019-04-25T08:45:37.044Z,927.27
2019-04-25T08:46:36.843Z,927.21
2019-04-25T08:47:36.170Z,927.27
2019-04-25T08:48:35.812Z,927.30
2019-04-25T08:49:36.257Z,927.30
2019-04-25T08:50:38.656Z,927.32
2019-04-25T08:51:36.094Z,927.36
2019-04-25T08:52:36.324Z,927.35
2019-04-25T08:53:36.538Z,927.38
2019-04-25T08:54:39.706Z,927.42
2019-04-25T08:56:00.138Z,927.35
2019-04-25T08:57:00.127Z,927.30
2019-04-25T08:58:00.134Z,927.25
2019-04-25T08:59:04.169Z,927.23
2019-04-25T09:00:24.912Z,927.22
2019-04-25T09:01:24.903Z,927.21
2019-04-25T09:02:24.891Z,927.24
2019-04-25T09:03:24.881Z,927.29
2019-04-25T09:05:24.909Z,927.25
2019-04-25T09:06:24.848Z,927.28
2019-04-25T09:07:24.841Z,927.32
2019-04-25T09:08:24.830Z,927.32
2019-04-25T09:09:24.820Z,927.36
2019-04-25T09:10:24.810Z,927.32
2019-04-25T09:11:25.049Z,927.37
2019-04-25T09:12:24.788Z,927.36
2019-04-25T09:13:24.780Z,927.33
2019-04-25T09:14:24.770Z,927.28
2019-04-25T09:15:24.759Z,927.31
2019-04-25T09:16:24.750Z,927.27
2019-04-25T09:17:24.790Z,927.24
2019-04-25T09:18:24.727Z,927.18
2019-04-25T09:19:24.716Z,927.15
2019-04-25T09:20:24.708Z,927.10
2019-04-25T09:21:24.698Z,927.12
2019-04-25T09:22:24.685Z,927.10
2019-04-25T09:23:24.726Z,927.07
2019-04-25T09:24:24.709Z,927.10
2019-04-25T09:25:24.655Z,927.03
2019-04-25T09:26:24.648Z,927.01
2019-04-25T09:27:24.634Z,926.97
2019-04-25T09:28:24.624Z,927.01
2019-04-25T09:29:24.766Z,927.04
2019-04-25T09:30:24.603Z,927.12
2019-04-25T09:31:24.594Z,927.10
2019-04-25T09:32:24.584Z,927.04
2019-04-25T09:33:24.574Z,927.05
2019-04-25T09:34:24.567Z,927.06
2019-04-25T09:36:24.589Z,927.12
2019-04-25T09:37:24.701Z,927.17
2019-04-25T09:38:24.521Z,927.19
2019-04-25T09:39:24.514Z,927.24
2019-04-25T09:40:24.501Z,927.24
2019-04-25T09:41:24.490Z,927.26
2019-04-25T09:43:24.574Z,927.20
2019-04-25T09:44:24.460Z,927.25
2019-04-25T09:45:26.310Z,927.21
2019-04-25T09:46:24.442Z,927.20
2019-04-25T09:47:24.432Z,927.20
2019-04-25T09:48:24.416Z,927.16
2019-04-25T09:49:24.507Z,927.12
2019-04-25T09:50:24.398Z,927.12
2019-04-25T09:51:24.389Z,927.10
2019-04-25T09:52:24.474Z,927.11
2019-04-25T09:53:25.996Z,927.15
2019-04-25T09:54:24.365Z,927.12
2019-04-25T09:55:24.398Z,927.11
2019-04-25T09:56:24.336Z,927.12
2019-04-25T09:57:24.324Z,927.13
2019-04-25T09:58:24.317Z,927.08
2019-04-25T09:59:27.948Z,926.99
2019-04-25T10:00:24.445Z,926.96
2019-04-25T10:01:24.284Z,926.93
2019-04-25T10:02:24.276Z,926.94
2019-04-25T10:03:24.261Z,926.97
2019-04-25T10:04:24.253Z,926.94
2019-04-25T10:05:24.245Z,926.97
2019-04-25T10:06:24.287Z,926.95
2019-04-25T10:07:24.221Z,926.97
2019-04-25T10:08:24.296Z,927.01
2019-04-25T10:09:24.205Z,926.98
2019-04-25T10:10:24.221Z,926.99
2019-04-25T10:11:24.183Z,926.99
2019-04-25T10:12:24.224Z,926.90
2019-04-25T10:13:25.250Z,926.94
2019-04-25T10:14:24.535Z,926.92
2019-04-25T10:15:24.139Z,926.92
2019-04-25T10:16:24.128Z,926.90
2019-04-25T10:17:24.618Z,926.91
2019-04-25T10:18:24.111Z,926.95
2019-04-25T10:19:24.100Z,926.94
2019-04-25T10:20:24.088Z,926.94
2019-04-25T10:21:24.077Z,926.95
2019-04-25T10:22:24.118Z,926.94
2019-04-25T10:23:24.164Z,926.93
2019-04-25T10:24:24.050Z,926.92
2019-04-25T10:25:24.035Z,926.90
2019-04-25T10:26:24.027Z,926.89
2019-04-25T10:27:24.221Z,926.85
2019-04-25T10:28:24.006Z,926.82
2019-04-25T10:29:23.998Z,926.81
2019-04-25T10:30:25.918Z,926.77
2019-04-25T10:31:23.974Z,926.82
2019-04-25T10:32:23.965Z,926.83
2019-04-25T10:33:24.370Z,926.80
2019-04-25T10:34:24.219Z,926.81
2019-04-25T10:35:23.974Z,926.83
2019-04-25T10:36:24.663Z,926.86
2019-04-25T10:37:23.913Z,926.85
2019-04-25T10:38:24.198Z,926.96
2019-04-25T10:39:23.982Z,926.98
2019-04-25T10:40:25.043Z,926.97
2019-04-25T10:41:24.440Z,927.02
2019-04-25T10:42:23.991Z,926.98
2019-04-25T10:43:24.068Z,926.98
2019-04-25T10:44:24.523Z,926.97
2019-04-25T10:45:25.945Z,927.03
2019-04-25T10:46:24.433Z,927.02
2019-04-25T10:47:23.812Z,927.03
2019-04-25T10:48:24.118Z,927.00
2019-04-25T10:49:23.786Z,926.98
2019-04-25T10:51:24.076Z,926.96
2019-04-25T10:52:23.751Z,926.95
2019-04-25T10:53:25.182Z,926.96
2019-04-25T10:54:23.731Z,927.00
2019-04-25T10:55:23.721Z,927.05
2019-04-25T10:56:24.309Z,927.07
2019-04-25T10:57:24.930Z,927.11
2019-04-25T10:58:23.687Z,927.11
2019-04-25T10:59:23.702Z,927.02
2019-04-25T11:00:24.136Z,926.99
2019-04-25T11:01:24.399Z,927.01
2019-04-25T11:02:23.677Z,926.97
2019-04-25T11:03:24.133Z,926.97
2019-04-25T11:04:23.624Z,926.99
2019-04-25T11:05:23.913Z,926.99
2019-04-25T11:06:23.607Z,926.98
2019-04-25T11:07:23.590Z,927.10
2019-04-25T11:08:24.550Z,927.06
2019-04-25T11:09:24.281Z,927.11
2019-04-25T11:10:23.658Z,927.10
2019-04-25T11:11:24.100Z,927.11
2019-04-25T11:12:23.604Z,927.05
2019-04-25T11:13:23.528Z,927.11
2019-04-25T11:14:23.977Z,927.10
2019-04-25T11:15:23.604Z,927.08
2019-04-25T11:16:24.220Z,927.07
2019-04-25T11:17:24.278Z,927.12
2019-04-25T11:18:23.838Z,927.10
2019-04-25T11:19:23.964Z,927.08
2019-04-25T11:20:23.456Z,927.07
2019-04-25T11:22:23.984Z,927.07
2019-04-25T11:23:23.425Z,927.07
2019-04-25T11:24:23.805Z,927.07
2019-04-25T11:25:24.046Z,927.05
2019-04-25T11:26:23.390Z,927.08
2019-04-25T11:27:23.962Z,927.09
2019-04-25T11:28:23.623Z,927.08
2019-04-25T11:29:24.021Z,927.04
2019-04-25T11:30:23.373Z,927.01
2019-04-25T11:31:23.639Z,927.01
2019-04-25T11:32:23.819Z,927.01
2019-04-25T11:33:24.651Z,927.02
2019-04-25T11:34:23.414Z,927.00
2019-04-25T11:35:24.188Z,926.98
2019-04-25T11:36:24.865Z,927.01
2019-04-25T11:37:23.908Z,926.95
2019-04-25T11:38:23.736Z,926.94
2019-04-25T11:39:23.939Z,926.94
2019-04-25T11:40:23.494Z,926.92
2019-04-25T11:41:24.244Z,926.90
2019-04-25T11:42:23.378Z,926.96
2019-04-25T11:43:23.216Z,926.91
2019-04-25T11:44:24.557Z,926.90
2019-04-25T11:45:23.292Z,926.87
2019-04-25T11:46:24.174Z,926.90
2019-04-25T11:47:24.258Z,926.92
2019-04-25T11:48:23.827Z,927.00
2019-04-25T11:49:23.843Z,927.02
2019-04-25T11:50:23.141Z,926.97
2019-04-25T11:51:24.023Z,927.03
2019-04-25T11:52:28.198Z,927.02
2019-04-25T11:53:48.458Z,927.09
2019-04-25T11:54:48.176Z,927.09
2019-04-25T11:55:49.289Z,927.09
2019-04-25T11:56:48.630Z,927.07
2019-04-25T11:57:50.068Z,927.10
2019-04-25T11:58:48.900Z,927.09
2019-04-25T11:59:49.306Z,927.10
2019-04-25T12:00:48.834Z,927.11
2019-04-25T12:01:47.839Z,927.13
2019-04-25T12:02:47.878Z,927.16
2019-04-25T12:03:48.960Z,927.10
2019-04-25T12:04:48.163Z,927.11
2019-04-25T12:05:48.395Z,927.08
2019-04-25T12:06:47.787Z,927.12
2019-04-25T12:07:47.956Z,927.15
2019-04-25T12:08:47.810Z,927.17
2019-04-25T12:09:48.144Z,927.17
2019-04-25T12:10:47.901Z,927.22
2019-04-25T12:11:48.517Z,927.19
2019-04-25T12:12:47.721Z,927.24
2019-04-25T12:13:48.105Z,927.21
2019-04-25T12:14:47.949Z,927.25
2019-04-25T12:15:47.687Z,927.22
2019-04-25T12:16:50.087Z,927.21
2019-04-25T12:17:47.668Z,927.21
2019-04-25T12:18:50.029Z,927.21
2019-04-25T12:19:47.646Z,927.23
2019-04-25T12:20:48.703Z,927.23
2019-04-25T12:21:48.170Z,927.23
2019-04-25T12:22:48.290Z,927.26
2019-04-25T12:23:48.727Z,927.28
2019-04-25T12:24:47.893Z,927.21
2019-04-25T12:25:47.629Z,927.21
2019-04-25T12:26:48.677Z,927.19
2019-04-25T12:27:49.863Z,927.15
2019-04-25T12:28:47.551Z,927.17
2019-04-25T12:29:47.547Z,927.18
2019-04-25T12:30:47.529Z,927.24
2019-04-25T12:31:47.711Z,927.24
2019-04-25T12:32:47.974Z,927.29
2019-04-25T12:33:48.657Z,927.30
2019-04-25T12:34:47.545Z,927.25
2019-04-25T12:35:47.952Z,927.32
2019-04-25T12:36:47.576Z,927.29
2019-04-25T12:37:48.142Z,927.25
2019-04-25T12:38:48.350Z,927.30
2019-04-25T12:39:48.422Z,927.33
2019-04-25T12:40:48.192Z,927.29
2019-04-25T12:41:49.053Z,927.30
2019-04-25T12:42:47.878Z,927.29